sensor_id;sensor_type;location;lat;lon;timestamp;P1;durP1;ratioP1;P2;durP2;ratioP2
50605;SDS011;36557;53.572;10.170;2022-09-24T00:04:00;477.13;;;442.83;;
50605;SDS011;36557;53.572;10.170;2022-09-24T00:06:29;439.67;;;409.38;;
50605;SDS011;36557;53.572;10.170;2022-09-24T00:08:58;477.27;;;443.02;;
50605;SDS011;36557;53.572;10.170;2022-09-24T00:11:24;500.92;;;465.40;;
50605;SDS011;36557;53.572;10.170;2022-09-24T00:13:53;469.63;;;437.48;;
50605;SDS011;36557;53.572;10.170;2022-09-24T00:16:21;431.52;;;402.48;;
50605;SDS011;36557;53.572;10.170;2022-09-24T00:18:49;446.20;;;415.25;;
50605;SDS011;36557;53.572;10.170;2022-09-24T00:21:16;455.05;;;424.38;;
50605;SDS011;36557;53.572;10.170;2022-09-24T00:23:47;448.20;;;417.20;;
50605;SDS011;36557;53.572;10.170;2022-09-24T00:26:13;453.15;;;421.38;;
50605;SDS011;36557;53.572;10.170;2022-09-24T00:28:59;451.27;;;420.55;;
50605;SDS011;36557;53.572;10.170;2022-09-24T00:31:25;496.65;;;461.05;;
50605;SDS011;36557;53.572;10.170;2022-09-24T00:33:51;456.73;;;424.50;;
50605;SDS011;36557;53.572;10.170;2022-09-24T00:36:19;512.30;;;475.10;;
50605;SDS011;36557;53.572;10.170;2022-09-24T00:38:50;515.35;;;477.90;;
50605;SDS011;36557;53.572;10.170;2022-09-24T00:41:17;493.40;;;457.70;;
50605;SDS011;36557;53.572;10.170;2022-09-24T00:43:45;494.92;;;459.42;;
50605;SDS011;36557;53.572;10.170;2022-09-24T00:48:44;504.77;;;469.42;;
50605;SDS011;36557;53.572;10.170;2022-09-24T00:51:12;517.22;;;479.60;;
50605;SDS011;36557;53.572;10.170;2022-09-24T00:53:44;456.40;;;424.05;;
50605;SDS011;36557;53.572;10.170;2022-09-24T00:56:12;458.88;;;426.77;;
50605;SDS011;36557;53.572;10.170;2022-09-24T00:58:41;520.83;;;482.75;;
50605;SDS011;36557;53.572;10.170;2022-09-24T01:01:10;504.02;;;467.02;;
50605;SDS011;36557;53.572;10.170;2022-09-24T01:03:37;461.27;;;429.05;;
50605;SDS011;36557;53.572;10.170;2022-09-24T01:06:05;523.53;;;484.98;;
50605;SDS011;36557;53.572;10.170;2022-09-24T01:08:32;449.55;;;417.42;;
50605;SDS011;36557;53.572;10.170;2022-09-24T01:14:05;487.98;;;452.90;;
50605;SDS011;36557;53.572;10.170;2022-09-24T01:21:40;515.13;;;477.13;;
50605;SDS011;36557;53.572;10.170;2022-09-24T01:37:48;456.42;;;423.65;;
50605;SDS011;36557;53.572;10.170;2022-09-24T01:40:24;454.25;;;421.73;;
50605;SDS011;36557;53.572;10.170;2022-09-24T01:42:53;514.53;;;476.35;;
50605;SDS011;36557;53.572;10.170;2022-09-24T01:45:22;513.58;;;475.38;;
50605;SDS011;36557;53.572;10.170;2022-09-24T01:47:50;510.98;;;473.48;;
50605;SDS011;36557;53.572;10.170;2022-09-24T01:50:17;528.03;;;488.85;;
50605;SDS011;36557;53.572;10.170;2022-09-24T01:52:45;542.08;;;501.30;;
50605;SDS011;36557;53.572;10.170;2022-09-24T01:55:23;463.35;;;429.60;;
50605;SDS011;36557;53.572;10.170;2022-09-24T01:57:54;509.05;;;470.45;;
50605;SDS011;36557;53.572;10.170;2022-09-24T02:00:23;515.30;;;476.65;;
50605;SDS011;36557;53.572;10.170;2022-09-24T02:05:28;456.35;;;423.15;;
50605;SDS011;36557;53.572;10.170;2022-09-24T02:10:47;455.65;;;422.38;;
50605;SDS011;36557;53.572;10.170;2022-09-24T02:13:22;460.15;;;426.73;;
50605;SDS011;36557;53.572;10.170;2022-09-24T02:15:52;454.83;;;422.08;;
50605;SDS011;36557;53.572;10.170;2022-09-24T02:18:24;520.83;;;480.88;;
50605;SDS011;36557;53.572;10.170;2022-09-24T02:20:55;488.42;;;452.55;;
50605;SDS011;36557;53.572;10.170;2022-09-24T02:23:23;467.02;;;432.83;;
50605;SDS011;36557;53.572;10.170;2022-09-24T02:25:54;531.13;;;491.05;;
50605;SDS011;36557;53.572;10.170;2022-09-24T02:28:24;485.98;;;450.70;;
50605;SDS011;36557;53.572;10.170;2022-09-24T02:30:52;457.25;;;423.08;;
50605;SDS011;36557;53.572;10.170;2022-09-24T02:33:43;455.88;;;421.60;;
50605;SDS011;36557;53.572;10.170;2022-09-24T02:36:31;460.50;;;425.60;;
50605;SDS011;36557;53.572;10.170;2022-09-24T02:38:57;514.28;;;474.70;;
50605;SDS011;36557;53.572;10.170;2022-09-24T02:41:23;469.38;;;433.67;;
50605;SDS011;36557;53.572;10.170;2022-09-24T02:43:50;502.33;;;463.63;;
50605;SDS011;36557;53.572;10.170;2022-09-24T02:46:16;521.97;;;481.80;;
50605;SDS011;36557;53.572;10.170;2022-09-24T02:48:42;519.00;;;478.83;;
50605;SDS011;36557;53.572;10.170;2022-09-24T02:51:08;468.55;;;433.25;;
50605;SDS011;36557;53.572;10.170;2022-09-24T02:53:33;518.40;;;479.08;;
50605;SDS011;36557;53.572;10.170;2022-09-24T02:55:59;472.20;;;437.50;;
50605;SDS011;36557;53.572;10.170;2022-09-24T02:58:28;514.05;;;474.90;;
50605;SDS011;36557;53.572;10.170;2022-09-24T03:00:54;467.73;;;432.45;;
50605;SDS011;36557;53.572;10.170;2022-09-24T03:03:21;508.63;;;468.42;;
50605;SDS011;36557;53.572;10.170;2022-09-24T03:05:48;521.83;;;481.17;;
50605;SDS011;36557;53.572;10.170;2022-09-24T03:08:17;455.70;;;421.48;;
50605;SDS011;36557;53.572;10.170;2022-09-24T03:10:43;478.75;;;441.40;;
50605;SDS011;36557;53.572;10.170;2022-09-24T03:13:09;469.42;;;433.08;;
50605;SDS011;36557;53.572;10.170;2022-09-24T03:15:35;514.65;;;475.33;;
50605;SDS011;36557;53.572;10.170;2022-09-24T03:18:01;534.83;;;492.98;;
50605;SDS011;36557;53.572;10.170;2022-09-24T03:20:27;521.05;;;480.85;;
50605;SDS011;36557;53.572;10.170;2022-09-24T03:22:53;510.52;;;470.95;;
50605;SDS011;36557;53.572;10.170;2022-09-24T03:25:19;488.02;;;450.10;;
50605;SDS011;36557;53.572;10.170;2022-09-24T03:27:45;471.73;;;435.50;;
50605;SDS011;36557;53.572;10.170;2022-09-24T03:30:11;510.38;;;470.63;;
50605;SDS011;36557;53.572;10.170;2022-09-24T03:32:57;511.60;;;471.52;;
50605;SDS011;36557;53.572;10.170;2022-09-24T03:35:23;476.35;;;439.75;;
50605;SDS011;36557;53.572;10.170;2022-09-24T03:37:49;522.40;;;481.48;;
50605;SDS011;36557;53.572;10.170;2022-09-24T03:40:15;495.40;;;456.33;;
50605;SDS011;36557;53.572;10.170;2022-09-24T03:42:41;517.28;;;475.95;;
50605;SDS011;36557;53.572;10.170;2022-09-24T03:45:07;460.73;;;425.17;;
50605;SDS011;36557;53.572;10.170;2022-09-24T03:47:34;457.73;;;421.60;;
50605;SDS011;36557;53.572;10.170;2022-09-24T03:49:59;474.63;;;437.50;;
50605;SDS011;36557;53.572;10.170;2022-09-24T03:52:26;501.38;;;462.60;;
50605;SDS011;36557;53.572;10.170;2022-09-24T03:54:53;514.05;;;473.52;;
50605;SDS011;36557;53.572;10.170;2022-09-24T03:57:19;529.30;;;486.80;;
50605;SDS011;36557;53.572;10.170;2022-09-24T03:59:45;530.55;;;488.10;;
50605;SDS011;36557;53.572;10.170;2022-09-24T04:02:11;498.85;;;459.58;;
50605;SDS011;36557;53.572;10.170;2022-09-24T04:04:38;525.10;;;482.58;;
50605;SDS011;36557;53.572;10.170;2022-09-24T04:07:04;513.63;;;471.90;;
50605;SDS011;36557;53.572;10.170;2022-09-24T04:09:30;483.80;;;445.95;;
50605;SDS011;36557;53.572;10.170;2022-09-24T04:11:55;509.88;;;468.25;;
50605;SDS011;36557;53.572;10.170;2022-09-24T04:14:23;457.58;;;421.55;;
50605;SDS011;36557;53.572;10.170;2022-09-24T04:16:49;517.70;;;475.35;;
50605;SDS011;36557;53.572;10.170;2022-09-24T04:19:14;476.23;;;436.90;;
50605;SDS011;36557;53.572;10.170;2022-09-24T04:21:41;519.83;;;478.00;;
50605;SDS011;36557;53.572;10.170;2022-09-24T04:24:07;476.95;;;439.05;;
50605;SDS011;36557;53.572;10.170;2022-09-24T04:26:33;531.78;;;489.02;;
50605;SDS011;36557;53.572;10.170;2022-09-24T04:28:59;461.50;;;424.80;;
50605;SDS011;36557;53.572;10.170;2022-09-24T04:31:24;452.15;;;415.90;;
50605;SDS011;36557;53.572;10.170;2022-09-24T04:33:53;519.50;;;477.42;;
50605;SDS011;36557;53.572;10.170;2022-09-24T04:36:19;470.92;;;432.55;;
50605;SDS011;36557;53.572;10.170;2022-09-24T04:38:45;461.40;;;423.80;;
50605;SDS011;36557;53.572;10.170;2022-09-24T04:41:11;448.50;;;412.65;;
50605;SDS011;36557;53.572;10.170;2022-09-24T04:43:37;533.30;;;490.15;;
50605;SDS011;36557;53.572;10.170;2022-09-24T04:46:04;493.77;;;453.85;;
50605;SDS011;36557;53.572;10.170;2022-09-24T04:48:30;459.67;;;421.75;;
50605;SDS011;36557;53.572;10.170;2022-09-24T04:50:56;524.85;;;481.88;;
50605;SDS011;36557;53.572;10.170;2022-09-24T04:53:22;470.42;;;432.02;;
50605;SDS011;36557;53.572;10.170;2022-09-24T04:55:48;519.90;;;476.77;;
50605;SDS011;36557;53.572;10.170;2022-09-24T04:58:14;514.90;;;472.02;;
50605;SDS011;36557;53.572;10.170;2022-09-24T05:00:40;509.13;;;466.90;;
50605;SDS011;36557;53.572;10.170;2022-09-24T05:03:07;531.05;;;488.35;;
50605;SDS011;36557;53.572;10.170;2022-09-24T05:05:33;530.25;;;486.52;;
50605;SDS011;36557;53.572;10.170;2022-09-24T05:08:00;518.85;;;476.65;;
50605;SDS011;36557;53.572;10.170;2022-09-24T05:10:26;498.73;;;458.27;;
50605;SDS011;36557;53.572;10.170;2022-09-24T05:12:53;488.70;;;448.48;;
50605;SDS011;36557;53.572;10.170;2022-09-24T05:15:19;515.25;;;474.45;;
50605;SDS011;36557;53.572;10.170;2022-09-24T05:17:45;525.67;;;482.65;;
50605;SDS011;36557;53.572;10.170;2022-09-24T05:20:11;473.45;;;433.75;;
50605;SDS011;36557;53.572;10.170;2022-09-24T05:22:41;527.95;;;483.88;;
50605;SDS011;36557;53.572;10.170;2022-09-24T05:25:08;520.42;;;476.65;;
50605;SDS011;36557;53.572;10.170;2022-09-24T05:27:35;484.85;;;444.60;;
50605;SDS011;36557;53.572;10.170;2022-09-24T05:30:01;482.38;;;441.80;;
50605;SDS011;36557;53.572;10.170;2022-09-24T05:32:30;515.80;;;474.23;;
50605;SDS011;36557;53.572;10.170;2022-09-24T05:34:57;474.05;;;434.52;;
50605;SDS011;36557;53.572;10.170;2022-09-24T05:37:23;551.10;;;507.38;;
50605;SDS011;36557;53.572;10.170;2022-09-24T05:39:49;493.98;;;453.20;;
50605;SDS011;36557;53.572;10.170;2022-09-24T05:42:14;515.20;;;473.35;;
50605;SDS011;36557;53.572;10.170;2022-09-24T05:44:40;536.33;;;492.77;;
50605;SDS011;36557;53.572;10.170;2022-09-24T05:47:09;478.40;;;438.70;;
50605;SDS011;36557;53.572;10.170;2022-09-24T05:49:35;485.48;;;445.65;;
50605;SDS011;36557;53.572;10.170;2022-09-24T05:52:02;477.10;;;437.25;;
50605;SDS011;36557;53.572;10.170;2022-09-24T05:54:28;518.67;;;476.45;;
50605;SDS011;36557;53.572;10.170;2022-09-24T05:56:54;546.47;;;501.02;;
50605;SDS011;36557;53.572;10.170;2022-09-24T05:59:19;510.38;;;468.50;;
50605;SDS011;36557;53.572;10.170;2022-09-24T06:01:45;504.80;;;463.10;;
50605;SDS011;36557;53.572;10.170;2022-09-24T06:04:13;516.33;;;473.30;;
50605;SDS011;36557;53.572;10.170;2022-09-24T06:06:38;536.90;;;492.75;;
50605;SDS011;36557;53.572;10.170;2022-09-24T06:09:04;566.67;;;520.33;;
50605;SDS011;36557;53.572;10.170;2022-09-24T06:11:32;549.88;;;504.75;;
50605;SDS011;36557;53.572;10.170;2022-09-24T06:13:59;545.92;;;500.65;;
50605;SDS011;36557;53.572;10.170;2022-09-24T06:16:27;582.17;;;534.50;;
50605;SDS011;36557;53.572;10.170;2022-09-24T06:18:52;572.08;;;525.72;;
50605;SDS011;36557;53.572;10.170;2022-09-24T06:21:18;569.90;;;523.08;;
50605;SDS011;36557;53.572;10.170;2022-09-24T06:23:44;576.42;;;527.70;;
50605;SDS011;36557;53.572;10.170;2022-09-24T06:26:10;547.28;;;501.98;;
50605;SDS011;36557;53.572;10.170;2022-09-24T06:28:37;563.33;;;516.83;;
50605;SDS011;36557;53.572;10.170;2022-09-24T06:31:03;538.80;;;493.80;;
50605;SDS011;36557;53.572;10.170;2022-09-24T06:33:30;577.83;;;529.45;;
50605;SDS011;36557;53.572;10.170;2022-09-24T06:35:59;582.58;;;533.70;;
50605;SDS011;36557;53.572;10.170;2022-09-24T06:38:26;574.65;;;525.83;;
50605;SDS011;36557;53.572;10.170;2022-09-24T06:40:56;600.05;;;550.55;;
50605;SDS011;36557;53.572;10.170;2022-09-24T06:43:26;550.22;;;503.40;;
50605;SDS011;36557;53.572;10.170;2022-09-24T06:45:55;582.63;;;532.95;;
50605;SDS011;36557;53.572;10.170;2022-09-24T06:48:21;555.65;;;510.27;;
50605;SDS011;36557;53.572;10.170;2022-09-24T06:50:47;588.47;;;538.35;;
50605;SDS011;36557;53.572;10.170;2022-09-24T06:53:13;565.83;;;518.13;;
50605;SDS011;36557;53.572;10.170;2022-09-24T06:55:40;581.75;;;533.40;;
50605;SDS011;36557;53.572;10.170;2022-09-24T06:58:07;565.55;;;518.00;;
50605;SDS011;36557;53.572;10.170;2022-09-24T07:00:35;597.95;;;547.85;;
50605;SDS011;36557;53.572;10.170;2022-09-24T07:03:02;576.58;;;528.38;;
50605;SDS011;36557;53.572;10.170;2022-09-24T07:05:29;578.25;;;530.40;;
50605;SDS011;36557;53.572;10.170;2022-09-24T07:07:55;568.03;;;520.38;;
50605;SDS011;36557;53.572;10.170;2022-09-24T07:10:21;574.13;;;524.45;;
50605;SDS011;36557;53.572;10.170;2022-09-24T07:12:48;531.47;;;486.55;;
50605;SDS011;36557;53.572;10.170;2022-09-24T07:15:14;586.67;;;538.00;;
50605;SDS011;36557;53.572;10.170;2022-09-24T07:17:40;584.53;;;535.10;;
50605;SDS011;36557;53.572;10.170;2022-09-24T07:20:06;578.85;;;531.50;;
50605;SDS011;36557;53.572;10.170;2022-09-24T07:22:36;566.45;;;518.95;;
50605;SDS011;36557;53.572;10.170;2022-09-24T07:25:09;585.40;;;535.65;;
50605;SDS011;36557;53.572;10.170;2022-09-24T07:27:36;559.40;;;512.28;;
50605;SDS011;36557;53.572;10.170;2022-09-24T07:30:05;591.83;;;542.20;;
50605;SDS011;36557;53.572;10.170;2022-09-24T07:32:32;583.90;;;534.70;;
50605;SDS011;36557;53.572;10.170;2022-09-24T07:34:58;592.05;;;544.10;;
50605;SDS011;36557;53.572;10.170;2022-09-24T07:37:24;596.78;;;546.92;;
50605;SDS011;36557;53.572;10.170;2022-09-24T07:39:49;618.60;;;568.83;;
50605;SDS011;36557;53.572;10.170;2022-09-24T07:42:15;606.60;;;555.53;;
50605;SDS011;36557;53.572;10.170;2022-09-24T07:44:42;615.88;;;566.42;;
50605;SDS011;36557;53.572;10.170;2022-09-24T07:47:07;607.92;;;558.05;;
50605;SDS011;36557;53.572;10.170;2022-09-24T07:49:33;584.83;;;536.28;;
50605;SDS011;36557;53.572;10.170;2022-09-24T07:51:59;606.03;;;556.33;;
50605;SDS011;36557;53.572;10.170;2022-09-24T07:54:25;621.38;;;571.20;;
50605;SDS011;36557;53.572;10.170;2022-09-24T07:57:02;593.55;;;544.47;;
50605;SDS011;36557;53.572;10.170;2022-09-24T07:59:33;609.50;;;559.33;;
50605;SDS011;36557;53.572;10.170;2022-09-24T08:01:59;610.05;;;560.20;;
50605;SDS011;36557;53.572;10.170;2022-09-24T08:04:24;620.10;;;569.35;;
50605;SDS011;36557;53.572;10.170;2022-09-24T08:06:50;620.20;;;570.55;;
50605;SDS011;36557;53.572;10.170;2022-09-24T08:09:16;667.80;;;615.03;;
50605;SDS011;36557;53.572;10.170;2022-09-24T08:11:41;655.35;;;602.08;;
50605;SDS011;36557;53.572;10.170;2022-09-24T08:14:08;663.10;;;608.95;;
50605;SDS011;36557;53.572;10.170;2022-09-24T08:16:33;682.70;;;627.85;;
50605;SDS011;36557;53.572;10.170;2022-09-24T08:18:59;668.78;;;614.88;;
50605;SDS011;36557;53.572;10.170;2022-09-24T08:21:25;700.75;;;644.25;;
50605;SDS011;36557;53.572;10.170;2022-09-24T08:23:52;681.72;;;626.83;;
50605;SDS011;36557;53.572;10.170;2022-09-24T08:26:18;685.65;;;629.70;;
50605;SDS011;36557;53.572;10.170;2022-09-24T08:28:43;706.15;;;649.72;;
50605;SDS011;36557;53.572;10.170;2022-09-24T08:31:11;702.80;;;646.58;;
50605;SDS011;36557;53.572;10.170;2022-09-24T08:33:37;725.90;;;667.72;;
50605;SDS011;36557;53.572;10.170;2022-09-24T08:36:04;705.10;;;647.88;;
50605;SDS011;36557;53.572;10.170;2022-09-24T08:38:32;698.35;;;640.75;;
50605;SDS011;36557;53.572;10.170;2022-09-24T08:46:23;667.70;;;612.88;;
50605;SDS011;36557;53.572;10.170;2022-09-24T08:49:15;695.17;;;636.67;;
50605;SDS011;36557;53.572;10.170;2022-09-24T08:54:42;683.47;;;627.15;;
50605;SDS011;36557;53.572;10.170;2022-09-24T08:57:11;729.60;;;671.42;;
50605;SDS011;36557;53.572;10.170;2022-09-24T08:59:40;689.88;;;632.67;;
50605;SDS011;36557;53.572;10.170;2022-09-24T09:10:30;677.63;;;622.05;;
50605;SDS011;36557;53.572;10.170;2022-09-24T09:15:46;684.50;;;625.35;;
50605;SDS011;36557;53.572;10.170;2022-09-24T09:18:37;686.92;;;628.33;;
50605;SDS011;36557;53.572;10.170;2022-09-24T09:21:14;686.38;;;629.40;;
50605;SDS011;36557;53.572;10.170;2022-09-24T09:23:45;672.10;;;616.50;;
50605;SDS011;36557;53.572;10.170;2022-09-24T09:26:13;633.10;;;582.78;;
50605;SDS011;36557;53.572;10.170;2022-09-24T09:28:41;658.05;;;601.20;;
50605;SDS011;36557;53.572;10.170;2022-09-24T09:33:49;681.55;;;624.33;;
50605;SDS011;36557;53.572;10.170;2022-09-24T09:36:51;665.72;;;609.05;;
50605;SDS011;36557;53.572;10.170;2022-09-24T09:42:30;641.80;;;586.83;;
50605;SDS011;36557;53.572;10.170;2022-09-24T09:48:07;658.75;;;602.17;;
50605;SDS011;36557;53.572;10.170;2022-09-24T09:53:23;652.53;;;597.65;;
50605;SDS011;36557;53.572;10.170;2022-09-24T09:58:27;659.03;;;603.70;;
50605;SDS011;36557;53.572;10.170;2022-09-24T10:01:05;672.08;;;615.13;;
50605;SDS011;36557;53.572;10.170;2022-09-24T10:03:34;624.10;;;570.67;;
50605;SDS011;36557;53.572;10.170;2022-09-24T10:06:21;654.78;;;599.22;;
50605;SDS011;36557;53.572;10.170;2022-09-24T10:08:51;651.30;;;596.42;;
50605;SDS011;36557;53.572;10.170;2022-09-24T10:11:18;650.83;;;596.63;;
50605;SDS011;36557;53.572;10.170;2022-09-24T10:13:46;666.95;;;611.78;;
50605;SDS011;36557;53.572;10.170;2022-09-24T10:16:25;649.30;;;596.70;;
50605;SDS011;36557;53.572;10.170;2022-09-24T10:18:50;652.00;;;599.28;;
50605;SDS011;36557;53.572;10.170;2022-09-24T10:21:28;663.83;;;610.28;;
50605;SDS011;36557;53.572;10.170;2022-09-24T10:24:00;651.80;;;598.45;;
50605;SDS011;36557;53.572;10.170;2022-09-24T10:26:35;667.10;;;611.83;;
50605;SDS011;36557;53.572;10.170;2022-09-24T10:29:03;646.15;;;591.83;;
50605;SDS011;36557;53.572;10.170;2022-09-24T10:31:49;665.63;;;610.70;;
50605;SDS011;36557;53.572;10.170;2022-09-24T10:34:21;664.85;;;609.08;;
50605;SDS011;36557;53.572;10.170;2022-09-24T10:39:39;672.22;;;614.83;;
50605;SDS011;36557;53.572;10.170;2022-09-24T10:42:05;660.17;;;603.80;;
50605;SDS011;36557;53.572;10.170;2022-09-24T10:44:46;640.95;;;586.55;;
50605;SDS011;36557;53.572;10.170;2022-09-24T10:55:35;662.55;;;605.33;;
50605;SDS011;36557;53.572;10.170;2022-09-24T11:14:56;628.88;;;577.35;;
50605;SDS011;36557;53.572;10.170;2022-09-24T11:20:43;637.90;;;583.97;;
50605;SDS011;36557;53.572;10.170;2022-09-24T11:26:34;640.33;;;586.88;;
50605;SDS011;36557;53.572;10.170;2022-09-24T11:32:15;665.50;;;606.95;;
50605;SDS011;36557;53.572;10.170;2022-09-24T11:44:21;627.80;;;574.20;;
50605;SDS011;36557;53.572;10.170;2022-09-24T11:52:56;633.85;;;579.58;;
50605;SDS011;36557;53.572;10.170;2022-09-24T11:55:38;654.75;;;597.40;;
50605;SDS011;36557;53.572;10.170;2022-09-24T12:00:45;632.45;;;576.80;;
50605;SDS011;36557;53.572;10.170;2022-09-24T12:03:43;595.92;;;546.25;;
50605;SDS011;36557;53.572;10.170;2022-09-24T12:06:20;631.95;;;576.35;;
50605;SDS011;36557;53.572;10.170;2022-09-24T12:11:34;665.83;;;608.58;;
50605;SDS011;36557;53.572;10.170;2022-09-24T12:14:11;648.20;;;592.22;;
50605;SDS011;36557;53.572;10.170;2022-09-24T12:16:46;656.75;;;599.90;;
50605;SDS011;36557;53.572;10.170;2022-09-24T12:19:25;656.22;;;598.60;;
50605;SDS011;36557;53.572;10.170;2022-09-24T12:21:59;649.22;;;592.80;;
50605;SDS011;36557;53.572;10.170;2022-09-24T12:27:05;631.10;;;576.38;;
50605;SDS011;36557;53.572;10.170;2022-09-24T12:38:15;634.28;;;579.00;;
50605;SDS011;36557;53.572;10.170;2022-09-24T12:43:33;637.53;;;582.85;;
50605;SDS011;36557;53.572;10.170;2022-09-24T12:46:27;654.38;;;597.60;;
50605;SDS011;36557;53.572;10.170;2022-09-24T12:49:12;643.17;;;585.10;;
50605;SDS011;36557;53.572;10.170;2022-09-24T12:51:44;620.78;;;567.95;;
50605;SDS011;36557;53.572;10.170;2022-09-24T12:54:19;610.25;;;556.08;;
50605;SDS011;36557;53.572;10.170;2022-09-24T12:57:28;625.22;;;571.03;;
50605;SDS011;36557;53.572;10.170;2022-09-24T12:59:52;645.80;;;589.22;;
50605;SDS011;36557;53.572;10.170;2022-09-24T13:02:20;598.05;;;547.50;;
50605;SDS011;36557;53.572;10.170;2022-09-24T13:07:41;637.05;;;582.60;;
50605;SDS011;36557;53.572;10.170;2022-09-24T13:12:39;601.33;;;553.78;;
50605;SDS011;36557;53.572;10.170;2022-09-24T13:15:06;603.50;;;549.05;;
50605;SDS011;36557;53.572;10.170;2022-09-24T13:17:46;595.92;;;549.00;;
50605;SDS011;36557;53.572;10.170;2022-09-24T13:20:22;571.35;;;523.67;;
50605;SDS011;36557;53.572;10.170;2022-09-24T13:22:56;641.38;;;584.75;;
50605;SDS011;36557;53.572;10.170;2022-09-24T13:25:26;625.90;;;573.47;;
50605;SDS011;36557;53.572;10.170;2022-09-24T13:27:56;620.47;;;566.47;;
50605;SDS011;36557;53.572;10.170;2022-09-24T13:30:31;654.40;;;597.08;;
50605;SDS011;36557;53.572;10.170;2022-09-24T13:35:34;641.80;;;587.03;;
50605;SDS011;36557;53.572;10.170;2022-09-24T13:38:14;640.78;;;583.30;;
50605;SDS011;36557;53.572;10.170;2022-09-24T13:40:54;653.25;;;596.10;;
50605;SDS011;36557;53.572;10.170;2022-09-24T13:44:10;620.83;;;564.63;;
50605;SDS011;36557;53.572;10.170;2022-09-24T13:46:24;652.92;;;595.95;;
50605;SDS011;36557;53.572;10.170;2022-09-24T13:48:52;649.70;;;591.88;;
50605;SDS011;36557;53.572;10.170;2022-09-24T13:51:30;603.80;;;552.85;;
50605;SDS011;36557;53.572;10.170;2022-09-24T13:54:46;640.03;;;582.80;;
50605;SDS011;36557;53.572;10.170;2022-09-24T13:57:05;603.95;;;553.35;;
50605;SDS011;36557;53.572;10.170;2022-09-24T13:59:38;612.58;;;558.25;;
50605;SDS011;36557;53.572;10.170;2022-09-24T14:02:18;599.75;;;550.30;;
50605;SDS011;36557;53.572;10.170;2022-09-24T14:04:52;650.90;;;592.45;;
50605;SDS011;36557;53.572;10.170;2022-09-24T14:07:19;650.78;;;592.00;;
50605;SDS011;36557;53.572;10.170;2022-09-24T14:09:46;592.67;;;542.30;;
50605;SDS011;36557;53.572;10.170;2022-09-24T14:12:16;624.83;;;569.50;;
50605;SDS011;36557;53.572;10.170;2022-09-24T14:14:50;627.92;;;572.35;;
50605;SDS011;36557;53.572;10.170;2022-09-24T14:17:18;640.58;;;583.10;;
50605;SDS011;36557;53.572;10.170;2022-09-24T14:19:44;572.80;;;528.80;;
50605;SDS011;36557;53.572;10.170;2022-09-24T14:22:19;584.80;;;534.53;;
50605;SDS011;36557;53.572;10.170;2022-09-24T14:24:59;662.35;;;604.53;;
50605;SDS011;36557;53.572;10.170;2022-09-24T14:27:39;637.33;;;580.90;;
50605;SDS011;36557;53.572;10.170;2022-09-24T14:30:15;669.78;;;610.83;;
50605;SDS011;36557;53.572;10.170;2022-09-24T14:32:49;566.22;;;521.92;;
50605;SDS011;36557;53.572;10.170;2022-09-24T14:35:46;616.80;;;560.72;;
50605;SDS011;36557;53.572;10.170;2022-09-24T14:38:14;619.38;;;564.45;;
50605;SDS011;36557;53.572;10.170;2022-09-24T14:40:55;581.08;;;533.17;;
50605;SDS011;36557;53.572;10.170;2022-09-24T14:43:27;646.78;;;587.85;;
50605;SDS011;36557;53.572;10.170;2022-09-24T14:46:48;660.25;;;602.42;;
50605;SDS011;36557;53.572;10.170;2022-09-24T14:49:19;635.25;;;579.65;;
50605;SDS011;36557;53.572;10.170;2022-09-24T14:52:00;600.75;;;549.15;;
50605;SDS011;36557;53.572;10.170;2022-09-24T14:54:32;594.03;;;544.67;;
50605;SDS011;36557;53.572;10.170;2022-09-24T14:57:07;648.97;;;592.50;;
50605;SDS011;36557;53.572;10.170;2022-09-24T14:59:47;616.33;;;562.05;;
50605;SDS011;36557;53.572;10.170;2022-09-24T15:04:57;563.63;;;516.75;;
50605;SDS011;36557;53.572;10.170;2022-09-24T15:07:29;574.97;;;526.17;;
50605;SDS011;36557;53.572;10.170;2022-09-24T15:09:57;636.78;;;581.83;;
50605;SDS011;36557;53.572;10.170;2022-09-24T15:12:25;611.83;;;557.95;;
50605;SDS011;36557;53.572;10.170;2022-09-24T15:14:56;623.03;;;568.92;;
50605;SDS011;36557;53.572;10.170;2022-09-24T15:17:28;637.05;;;581.55;;
50605;SDS011;36557;53.572;10.170;2022-09-24T15:19:58;671.55;;;612.30;;
50605;SDS011;36557;53.572;10.170;2022-09-24T15:22:24;649.78;;;591.20;;
50605;SDS011;36557;53.572;10.170;2022-09-24T15:24:52;623.17;;;569.03;;
50605;SDS011;36557;53.572;10.170;2022-09-24T15:29:55;604.00;;;550.33;;
50605;SDS011;36557;53.572;10.170;2022-09-24T15:32:23;638.92;;;582.38;;
50605;SDS011;36557;53.572;10.170;2022-09-24T15:34:50;606.67;;;553.47;;
50605;SDS011;36557;53.572;10.170;2022-09-24T15:37:18;578.67;;;529.08;;
50605;SDS011;36557;53.572;10.170;2022-09-24T15:39:46;588.15;;;539.53;;
50605;SDS011;36557;53.572;10.170;2022-09-24T15:42:20;582.88;;;533.58;;
50605;SDS011;36557;53.572;10.170;2022-09-24T15:44:48;624.25;;;570.92;;
50605;SDS011;36557;53.572;10.170;2022-09-24T15:47:15;590.95;;;542.00;;
50605;SDS011;36557;53.572;10.170;2022-09-24T15:49:41;603.70;;;552.78;;
50605;SDS011;36557;53.572;10.170;2022-09-24T15:52:08;584.95;;;534.78;;
50605;SDS011;36557;53.572;10.170;2022-09-24T15:54:48;652.95;;;595.20;;
50605;SDS011;36557;53.572;10.170;2022-09-24T15:57:15;540.88;;;499.33;;
50605;SDS011;36557;53.572;10.170;2022-09-24T15:59:41;611.53;;;559.20;;
50605;SDS011;36557;53.572;10.170;2022-09-24T16:02:12;654.97;;;597.38;;
50605;SDS011;36557;53.572;10.170;2022-09-24T16:04:48;658.58;;;600.58;;
50605;SDS011;36557;53.572;10.170;2022-09-24T16:07:15;643.30;;;587.25;;
50605;SDS011;36557;53.572;10.170;2022-09-24T16:09:41;631.92;;;576.47;;
50605;SDS011;36557;53.572;10.170;2022-09-24T16:12:08;564.95;;;520.55;;
50605;SDS011;36557;53.572;10.170;2022-09-24T16:14:38;615.15;;;562.72;;
50605;SDS011;36557;53.572;10.170;2022-09-24T16:17:03;569.05;;;524.20;;
50605;SDS011;36557;53.572;10.170;2022-09-24T16:19:29;615.83;;;561.63;;
50605;SDS011;36557;53.572;10.170;2022-09-24T16:21:55;647.75;;;591.38;;
50605;SDS011;36557;53.572;10.170;2022-09-24T16:24:20;603.03;;;550.60;;
50605;SDS011;36557;53.572;10.170;2022-09-24T16:26:46;553.97;;;510.92;;
50605;SDS011;36557;53.572;10.170;2022-09-24T16:29:12;650.80;;;593.70;;
50605;SDS011;36557;53.572;10.170;2022-09-24T16:31:38;629.80;;;575.65;;